sensor_id;sensor_type;location;lat;lon;timestamp;P1;durP1;ratioP1;P2;durP2;ratioP2
14167;SDS011;7163;50.626;12.922;2023-09-19T00:00:32;8.03;;;3.77;;
14167;SDS011;7163;50.626;12.922;2023-09-19T00:05:35;5.70;;;3.60;;
14167;SDS011;7163;50.626;12.922;2023-09-19T00:10:36;5.37;;;2.90;;
14167;SDS011;7163;50.626;12.922;2023-09-19T00:15:38;3.87;;;2.70;;
14167;SDS011;7163;50.626;12.922;2023-09-19T00:20:42;4.17;;;2.83;;
14167;SDS011;7163;50.626;12.922;2023-09-19T00:25:43;6.33;;;2.53;;
14167;SDS011;7163;50.626;12.922;2023-09-19T00:30:44;4.17;;;2.20;;
14167;SDS011;7163;50.626;12.922;2023-09-19T00:35:51;6.07;;;2.10;;
14167;SDS011;7163;50.626;12.922;2023-09-19T00:40:53;2.77;;;2.27;;
14167;SDS011;7163;50.626;12.922;2023-09-19T00:45:56;2.20;;;2.00;;
14167;SDS011;7163;50.626;12.922;2023-09-19T00:50:57;2.73;;;1.77;;
14167;SDS011;7163;50.626;12.922;2023-09-19T00:56:00;4.00;;;2.20;;
14167;SDS011;7163;50.626;12.922;2023-09-19T01:01:01;2.23;;;1.90;;
14167;SDS011;7163;50.626;12.922;2023-09-19T01:06:03;1.80;;;1.70;;
14167;SDS011;7163;50.626;12.922;2023-09-19T01:11:15;3.97;;;2.10;;
14167;SDS011;7163;50.626;12.922;2023-09-19T01:16:26;2.60;;;1.80;;
14167;SDS011;7163;50.626;12.922;2023-09-19T01:32:52;2.33;;;1.70;;
14167;SDS011;7163;50.626;12.922;2023-09-19T01:37:52;2.20;;;2.00;;
14167;SDS011;7163;50.626;12.922;2023-09-19T01:48:20;3.93;;;1.93;;
14167;SDS011;7163;50.626;12.922;2023-09-19T01:53:33;5.97;;;2.37;;
14167;SDS011;7163;50.626;12.922;2023-09-19T01:58:37;4.40;;;2.30;;
14167;SDS011;7163;50.626;12.922;2023-09-19T02:03:43;3.27;;;2.40;;
14167;SDS011;7163;50.626;12.922;2023-09-19T02:08:44;3.90;;;2.30;;
14167;SDS011;7163;50.626;12.922;2023-09-19T02:13:45;3.00;;;2.00;;
14167;SDS011;7163;50.626;12.922;2023-09-19T02:18:49;6.00;;;2.33;;
14167;SDS011;7163;50.626;12.922;2023-09-19T02:23:50;4.20;;;2.40;;
14167;SDS011;7163;50.626;12.922;2023-09-19T02:28:51;4.73;;;2.73;;
14167;SDS011;7163;50.626;12.922;2023-09-19T02:33:53;3.60;;;2.50;;
14167;SDS011;7163;50.626;12.922;2023-09-19T02:38:53;3.20;;;2.40;;
14167;SDS011;7163;50.626;12.922;2023-09-19T02:43:54;3.53;;;2.80;;
14167;SDS011;7163;50.626;12.922;2023-09-19T02:48:55;4.77;;;3.30;;
14167;SDS011;7163;50.626;12.922;2023-09-19T02:53:55;4.43;;;3.00;;
14167;SDS011;7163;50.626;12.922;2023-09-19T02:58:55;6.43;;;3.70;;
14167;SDS011;7163;50.626;12.922;2023-09-19T03:03:56;7.93;;;3.33;;
14167;SDS011;7163;50.626;12.922;2023-09-19T03:08:57;7.80;;;3.37;;
14167;SDS011;7163;50.626;12.922;2023-09-19T03:14:00;7.20;;;3.10;;
14167;SDS011;7163;50.626;12.922;2023-09-19T03:19:00;4.63;;;3.30;;
14167;SDS011;7163;50.626;12.922;2023-09-19T03:24:00;7.30;;;3.13;;
14167;SDS011;7163;50.626;12.922;2023-09-19T03:29:03;7.07;;;3.90;;
14167;SDS011;7163;50.626;12.922;2023-09-19T03:34:06;5.07;;;3.67;;
14167;SDS011;7163;50.626;12.922;2023-09-19T03:39:07;6.93;;;3.80;;
14167;SDS011;7163;50.626;12.922;2023-09-19T03:44:08;4.23;;;3.40;;
14167;SDS011;7163;50.626;12.922;2023-09-19T03:49:08;4.77;;;3.17;;
14167;SDS011;7163;50.626;12.922;2023-09-19T03:54:10;4.87;;;3.33;;
14167;SDS011;7163;50.626;12.922;2023-09-19T03:59:10;5.73;;;3.13;;
14167;SDS011;7163;50.626;12.922;2023-09-19T04:04:12;5.83;;;3.07;;
14167;SDS011;7163;50.626;12.922;2023-09-19T04:09:14;4.53;;;2.97;;
14167;SDS011;7163;50.626;12.922;2023-09-19T04:14:14;4.07;;;3.10;;
14167;SDS011;7163;50.626;12.922;2023-09-19T04:19:15;5.17;;;3.10;;
14167;SDS011;7163;50.626;12.922;2023-09-19T04:24:17;3.23;;;2.90;;
14167;SDS011;7163;50.626;12.922;2023-09-19T04:29:19;6.30;;;3.33;;
14167;SDS011;7163;50.626;12.922;2023-09-19T04:34:20;3.97;;;3.03;;
14167;SDS011;7163;50.626;12.922;2023-09-19T04:39:20;8.13;;;3.27;;
14167;SDS011;7163;50.626;12.922;2023-09-19T04:44:21;4.00;;;3.00;;
14167;SDS011;7163;50.626;12.922;2023-09-19T04:49:21;7.43;;;3.70;;
14167;SDS011;7163;50.626;12.922;2023-09-19T04:54:22;4.23;;;3.20;;
14167;SDS011;7163;50.626;12.922;2023-09-19T04:59:22;4.37;;;2.50;;
14167;SDS011;7163;50.626;12.922;2023-09-19T05:04:23;5.30;;;3.23;;
14167;SDS011;7163;50.626;12.922;2023-09-19T05:09:24;3.67;;;3.03;;
14167;SDS011;7163;50.626;12.922;2023-09-19T05:14:25;5.07;;;3.03;;
14167;SDS011;7163;50.626;12.922;2023-09-19T05:19:25;4.07;;;2.83;;
14167;SDS011;7163;50.626;12.922;2023-09-19T05:24:26;5.23;;;2.87;;
14167;SDS011;7163;50.626;12.922;2023-09-19T05:29:27;3.47;;;2.50;;
14167;SDS011;7163;50.626;12.922;2023-09-19T05:34:29;3.50;;;2.50;;
14167;SDS011;7163;50.626;12.922;2023-09-19T05:39:30;3.60;;;2.60;;
14167;SDS011;7163;50.626;12.922;2023-09-19T05:44:30;4.50;;;3.00;;
14167;SDS011;7163;50.626;12.922;2023-09-19T05:49:35;4.17;;;2.30;;
14167;SDS011;7163;50.626;12.922;2023-09-19T05:54:38;3.97;;;2.13;;
14167;SDS011;7163;50.626;12.922;2023-09-19T05:59:39;4.00;;;2.33;;
14167;SDS011;7163;50.626;12.922;2023-09-19T06:04:40;4.50;;;2.63;;
14167;SDS011;7163;50.626;12.922;2023-09-19T06:09:40;4.70;;;2.40;;
14167;SDS011;7163;50.626;12.922;2023-09-19T06:14:41;6.20;;;2.60;;
14167;SDS011;7163;50.626;12.922;2023-09-19T06:19:41;5.97;;;2.50;;
14167;SDS011;7163;50.626;12.922;2023-09-19T06:24:46;4.20;;;2.43;;
14167;SDS011;7163;50.626;12.922;2023-09-19T06:29:47;3.33;;;1.90;;
14167;SDS011;7163;50.626;12.922;2023-09-19T06:34:51;2.90;;;2.20;;
14167;SDS011;7163;50.626;12.922;2023-09-19T06:39:54;2.60;;;2.00;;
14167;SDS011;7163;50.626;12.922;2023-09-19T06:44:54;3.90;;;1.93;;
14167;SDS011;7163;50.626;12.922;2023-09-19T06:49:56;4.13;;;2.07;;
14167;SDS011;7163;50.626;12.922;2023-09-19T06:54:56;3.13;;;1.73;;
14167;SDS011;7163;50.626;12.922;2023-09-19T06:59:57;3.43;;;1.87;;
14167;SDS011;7163;50.626;12.922;2023-09-19T07:04:58;2.80;;;1.85;;
14167;SDS011;7163;50.626;12.922;2023-09-19T07:09:58;3.47;;;2.10;;
14167;SDS011;7163;50.626;12.922;2023-09-19T07:14:59;2.85;;;2.25;;
14167;SDS011;7163;50.626;12.922;2023-09-19T07:19:59;3.35;;;2.10;;
14167;SDS011;7163;50.626;12.922;2023-09-19T07:25:00;3.33;;;2.00;;
14167;SDS011;7163;50.626;12.922;2023-09-19T07:30:00;5.47;;;2.10;;
14167;SDS011;7163;50.626;12.922;2023-09-19T07:35:00;2.63;;;2.10;;
14167;SDS011;7163;50.626;12.922;2023-09-19T07:40:05;2.92;;;2.00;;
14167;SDS011;7163;50.626;12.922;2023-09-19T07:45:07;3.47;;;2.20;;
14167;SDS011;7163;50.626;12.922;2023-09-19T07:50:08;4.28;;;1.92;;
14167;SDS011;7163;50.626;12.922;2023-09-19T07:55:10;2.53;;;1.70;;
14167;SDS011;7163;50.626;12.922;2023-09-19T08:00:16;3.92;;;2.30;;
14167;SDS011;7163;50.626;12.922;2023-09-19T08:05:16;3.60;;;1.85;;
14167;SDS011;7163;50.626;12.922;2023-09-19T08:10:18;1.60;;;1.50;;
14167;SDS011;7163;50.626;12.922;2023-09-19T08:15:19;3.90;;;1.90;;
14167;SDS011;7163;50.626;12.922;2023-09-19T08:20:20;4.05;;;2.20;;
14167;SDS011;7163;50.626;12.922;2023-09-19T08:25:21;4.18;;;1.92;;
14167;SDS011;7163;50.626;12.922;2023-09-19T08:30:21;2.45;;;1.90;;
14167;SDS011;7163;50.626;12.922;2023-09-19T08:35:27;1.70;;;1.60;;
14167;SDS011;7163;50.626;12.922;2023-09-19T08:40:27;3.45;;;1.80;;
14167;SDS011;7163;50.626;12.922;2023-09-19T08:45:33;2.90;;;1.90;;
14167;SDS011;7163;50.626;12.922;2023-09-19T08:50:37;8.10;;;2.10;;
14167;SDS011;7163;50.626;12.922;2023-09-19T08:55:41;2.13;;;1.70;;
14167;SDS011;7163;50.626;12.922;2023-09-19T09:00:41;3.20;;;1.70;;
14167;SDS011;7163;50.626;12.922;2023-09-19T09:05:46;2.45;;;1.60;;
14167;SDS011;7163;50.626;12.922;2023-09-19T09:10:47;2.60;;;1.67;;
14167;SDS011;7163;50.626;12.922;2023-09-19T09:15:48;1.77;;;1.40;;
14167;SDS011;7163;50.626;12.922;2023-09-19T09:20:49;1.85;;;1.48;;
14167;SDS011;7163;50.626;12.922;2023-09-19T09:25:50;2.22;;;2.03;;
14167;SDS011;7163;50.626;12.922;2023-09-19T09:30:55;2.83;;;1.30;;
14167;SDS011;7163;50.626;12.922;2023-09-19T09:35:57;1.67;;;1.20;;
14167;SDS011;7163;50.626;12.922;2023-09-19T09:41:00;1.67;;;1.20;;
14167;SDS011;7163;50.626;12.922;2023-09-19T09:46:16;3.67;;;1.67;;
14167;SDS011;7163;50.626;12.922;2023-09-19T09:51:29;1.35;;;1.25;;
14167;SDS011;7163;50.626;12.922;2023-09-19T09:56:31;3.65;;;1.65;;
14167;SDS011;7163;50.626;12.922;2023-09-19T10:01:55;2.72;;;1.40;;
14167;SDS011;7163;50.626;12.922;2023-09-19T10:06:56;2.35;;;1.20;;
14167;SDS011;7163;50.626;12.922;2023-09-19T10:12:05;4.30;;;1.55;;
14167;SDS011;7163;50.626;12.922;2023-09-19T10:17:10;1.42;;;1.15;;
14167;SDS011;7163;50.626;12.922;2023-09-19T10:22:11;2.15;;;1.20;;
14167;SDS011;7163;50.626;12.922;2023-09-19T10:27:13;1.23;;;1.13;;
14167;SDS011;7163;50.626;12.922;2023-09-19T10:32:17;3.85;;;1.35;;
14167;SDS011;7163;50.626;12.922;2023-09-19T10:37:20;2.08;;;1.50;;
14167;SDS011;7163;50.626;12.922;2023-09-19T10:42:22;1.75;;;1.20;;
14167;SDS011;7163;50.626;12.922;2023-09-19T10:47:26;1.30;;;1.20;;
14167;SDS011;7163;50.626;12.922;2023-09-19T10:52:26;2.13;;;1.40;;
14167;SDS011;7163;50.626;12.922;2023-09-19T10:57:27;3.33;;;1.52;;
14167;SDS011;7163;50.626;12.922;2023-09-19T11:02:28;2.13;;;1.38;;
14167;SDS011;7163;50.626;12.922;2023-09-19T11:07:28;1.85;;;1.27;;
14167;SDS011;7163;50.626;12.922;2023-09-19T11:17:32;2.90;;;1.50;;
14167;SDS011;7163;50.626;12.922;2023-09-19T11:33:15;1.70;;;1.38;;
14167;SDS011;7163;50.626;12.922;2023-09-19T11:43:46;3.08;;;2.13;;
14167;SDS011;7163;50.626;12.922;2023-09-19T11:48:47;2.67;;;1.65;;
14167;SDS011;7163;50.626;12.922;2023-09-19T11:53:50;4.40;;;1.55;;
14167;SDS011;7163;50.626;12.922;2023-09-19T11:58:52;1.83;;;1.30;;
14167;SDS011;7163;50.626;12.922;2023-09-19T12:03:55;3.45;;;1.63;;
14167;SDS011;7163;50.626;12.922;2023-09-19T12:08:59;2.03;;;1.70;;
14167;SDS011;7163;50.626;12.922;2023-09-19T12:14:01;4.03;;;1.60;;
14167;SDS011;7163;50.626;12.922;2023-09-19T12:19:18;8.90;;;1.92;;
14167;SDS011;7163;50.626;12.922;2023-09-19T12:24:22;2.67;;;1.90;;
14167;SDS011;7163;50.626;12.922;2023-09-19T12:29:23;3.38;;;2.00;;
14167;SDS011;7163;50.626;12.922;2023-09-19T12:34:25;2.00;;;1.70;;
14167;SDS011;7163;50.626;12.922;2023-09-19T12:39:34;2.70;;;1.90;;
14167;SDS011;7163;50.626;12.922;2023-09-19T12:44:39;4.15;;;2.10;;
14167;SDS011;7163;50.626;12.922;2023-09-19T12:55:06;2.40;;;1.70;;
14167;SDS011;7163;50.626;12.922;2023-09-19T13:00:07;3.17;;;1.52;;
14167;SDS011;7163;50.626;12.922;2023-09-19T13:05:11;2.58;;;1.58;;
14167;SDS011;7163;50.626;12.922;2023-09-19T13:10:11;2.67;;;1.90;;
14167;SDS011;7163;50.626;12.922;2023-09-19T13:15:16;2.83;;;1.55;;
14167;SDS011;7163;50.626;12.922;2023-09-19T13:20:24;4.95;;;1.92;;
14167;SDS011;7163;50.626;12.922;2023-09-19T13:25:27;2.00;;;1.65;;
14167;SDS011;7163;50.626;12.922;2023-09-19T13:30:33;3.33;;;2.17;;
14167;SDS011;7163;50.626;12.922;2023-09-19T13:35:40;4.78;;;2.08;;
14167;SDS011;7163;50.626;12.922;2023-09-19T13:40:41;3.65;;;2.28;;
14167;SDS011;7163;50.626;12.922;2023-09-19T13:45:42;2.90;;;1.95;;
14167;SDS011;7163;50.626;12.922;2023-09-19T13:50:42;3.22;;;2.67;;
14167;SDS011;7163;50.626;12.922;2023-09-19T13:55:43;2.40;;;1.90;;
14167;SDS011;7163;50.626;12.922;2023-09-19T14:00:44;3.40;;;2.22;;
14167;SDS011;7163;50.626;12.922;2023-09-19T14:05:44;3.03;;;2.20;;
14167;SDS011;7163;50.626;12.922;2023-09-19T14:10:45;5.53;;;2.90;;
14167;SDS011;7163;50.626;12.922;2023-09-19T14:15:46;6.53;;;2.15;;
14167;SDS011;7163;50.626;12.922;2023-09-19T14:20:46;3.40;;;2.20;;
14167;SDS011;7163;50.626;12.922;2023-09-19T14:25:47;3.65;;;2.40;;
14167;SDS011;7163;50.626;12.922;2023-09-19T14:30:48;4.75;;;2.88;;
14167;SDS011;7163;50.626;12.922;2023-09-19T14:35:49;5.28;;;2.30;;
14167;SDS011;7163;50.626;12.922;2023-09-19T14:40:58;5.82;;;2.30;;
14167;SDS011;7163;50.626;12.922;2023-09-19T14:46:03;3.75;;;2.72;;
14167;SDS011;7163;50.626;12.922;2023-09-19T14:51:05;5.03;;;2.80;;
14167;SDS011;7163;50.626;12.922;2023-09-19T14:56:07;5.60;;;2.53;;
14167;SDS011;7163;50.626;12.922;2023-09-19T15:01:09;4.60;;;2.33;;
14167;SDS011;7163;50.626;12.922;2023-09-19T15:06:13;3.83;;;2.63;;
14167;SDS011;7163;50.626;12.922;2023-09-19T15:11:15;4.25;;;2.75;;
14167;SDS011;7163;50.626;12.922;2023-09-19T15:16:18;4.95;;;2.58;;
14167;SDS011;7163;50.626;12.922;2023-09-19T15:21:19;5.75;;;2.50;;
14167;SDS011;7163;50.626;12.922;2023-09-19T15:26:19;4.75;;;2.72;;
14167;SDS011;7163;50.626;12.922;2023-09-19T15:31:21;4.22;;;2.50;;
14167;SDS011;7163;50.626;12.922;2023-09-19T15:36:21;4.97;;;3.00;;
14167;SDS011;7163;50.626;12.922;2023-09-19T15:41:22;7.88;;;2.75;;
14167;SDS011;7163;50.626;12.922;2023-09-19T15:46:22;4.40;;;2.58;;
14167;SDS011;7163;50.626;12.922;2023-09-19T15:51:23;4.03;;;2.50;;
14167;SDS011;7163;50.626;12.922;2023-09-19T15:56:25;6.22;;;2.72;;
14167;SDS011;7163;50.626;12.922;2023-09-19T16:01:27;4.25;;;2.58;;
14167;SDS011;7163;50.626;12.922;2023-09-19T16:06:28;5.45;;;2.65;;
14167;SDS011;7163;50.626;12.922;2023-09-19T16:11:31;6.05;;;2.65;;
14167;SDS011;7163;50.626;12.922;2023-09-19T16:16:34;4.30;;;2.20;;
14167;SDS011;7163;50.626;12.922;2023-09-19T16:21:36;3.75;;;2.53;;
14167;SDS011;7163;50.626;12.922;2023-09-19T16:26:37;4.63;;;2.70;;
14167;SDS011;7163;50.626;12.922;2023-09-19T16:31:38;3.95;;;2.42;;
14167;SDS011;7163;50.626;12.922;2023-09-19T16:36:38;7.45;;;2.53;;
14167;SDS011;7163;50.626;12.922;2023-09-19T16:41:39;6.18;;;2.97;;
14167;SDS011;7163;50.626;12.922;2023-09-19T16:46:40;3.97;;;2.70;;
14167;SDS011;7163;50.626;12.922;2023-09-19T16:51:41;5.70;;;2.83;;
14167;SDS011;7163;50.626;12.922;2023-09-19T16:56:43;3.63;;;2.50;;
14167;SDS011;7163;50.626;12.922;2023-09-19T17:01:44;5.53;;;2.40;;
14167;SDS011;7163;50.626;12.922;2023-09-19T17:06:45;4.40;;;2.63;;
14167;SDS011;7163;50.626;12.922;2023-09-19T17:11:46;4.53;;;2.70;;
14167;SDS011;7163;50.626;12.922;2023-09-19T17:16:48;6.83;;;2.77;;
14167;SDS011;7163;50.626;12.922;2023-09-19T17:21:49;7.23;;;2.47;;
14167;SDS011;7163;50.626;12.922;2023-09-19T17:26:49;5.27;;;2.67;;
14167;SDS011;7163;50.626;12.922;2023-09-19T17:31:50;5.33;;;2.90;;
14167;SDS011;7163;50.626;12.922;2023-09-19T17:36:50;5.37;;;2.70;;
14167;SDS011;7163;50.626;12.922;2023-09-19T17:41:52;4.20;;;2.80;;
14167;SDS011;7163;50.626;12.922;2023-09-19T17:46:53;4.47;;;2.43;;
14167;SDS011;7163;50.626;12.922;2023-09-19T17:51:53;4.83;;;2.50;;
14167;SDS011;7163;50.626;12.922;2023-09-19T17:56:54;6.00;;;2.83;;
14167;SDS011;7163;50.626;12.922;2023-09-19T18:01:55;4.63;;;2.50;;
14167;SDS011;7163;50.626;12.922;2023-09-19T18:06:56;3.43;;;2.40;;
14167;SDS011;7163;50.626;12.922;2023-09-19T18:11:56;3.97;;;2.40;;
14167;SDS011;7163;50.626;12.922;2023-09-19T18:16:57;3.80;;;2.10;;
14167;SDS011;7163;50.626;12.922;2023-09-19T18:21:58;5.97;;;2.47;;
14167;SDS011;7163;50.626;12.922;2023-09-19T18:27:03;6.83;;;2.50;;
14167;SDS011;7163;50.626;12.922;2023-09-19T18:32:04;5.47;;;2.70;;
14167;SDS011;7163;50.626;12.922;2023-09-19T18:37:05;6.73;;;2.60;;
14167;SDS011;7163;50.626;12.922;2023-09-19T18:42:05;5.30;;;2.70;;
14167;SDS011;7163;50.626;12.922;2023-09-19T18:47:06;5.50;;;2.50;;
14167;SDS011;7163;50.626;12.922;2023-09-19T18:52:07;5.43;;;2.43;;
14167;SDS011;7163;50.626;12.922;2023-09-19T18:57:08;4.10;;;2.70;;
14167;SDS011;7163;50.626;12.922;2023-09-19T19:02:08;6.77;;;2.77;;
14167;SDS011;7163;50.626;12.922;2023-09-19T19:07:10;6.30;;;2.33;;
14167;SDS011;7163;50.626;12.922;2023-09-19T19:12:16;5.07;;;3.00;;
14167;SDS011;7163;50.626;12.922;2023-09-19T19:17:16;9.33;;;4.33;;
14167;SDS011;7163;50.626;12.922;2023-09-19T19:22:17;6.10;;;3.47;;
14167;SDS011;7163;50.626;12.922;2023-09-19T19:27:19;4.27;;;2.80;;
14167;SDS011;7163;50.626;12.922;2023-09-19T19:32:20;11.10;;;6.10;;
14167;SDS011;7163;50.626;12.922;2023-09-19T19:37:26;9.93;;;4.00;;
14167;SDS011;7163;50.626;12.922;2023-09-19T19:42:26;7.10;;;2.50;;
14167;SDS011;7163;50.626;12.922;2023-09-19T19:47:29;5.80;;;2.60;;
14167;SDS011;7163;50.626;12.922;2023-09-19T19:52:30;4.37;;;2.20;;
14167;SDS011;7163;50.626;12.922;2023-09-19T19:57:33;6.53;;;2.80;;
14167;SDS011;7163;50.626;12.922;2023-09-19T20:02:35;5.70;;;2.60;;
14167;SDS011;7163;50.626;12.922;2023-09-19T20:07:35;10.20;;;3.30;;
14167;SDS011;7163;50.626;12.922;2023-09-19T20:12:36;4.77;;;2.50;;
14167;SDS011;7163;50.626;12.922;2023-09-19T20:17:37;5.73;;;2.83;;
14167;SDS011;7163;50.626;12.922;2023-09-19T20:22:37;5.50;;;2.40;;
14167;SDS011;7163;50.626;12.922;2023-09-19T20:27:38;8.67;;;4.03;;
14167;SDS011;7163;50.626;12.922;2023-09-19T20:32:39;6.43;;;2.67;;
14167;SDS011;7163;50.626;12.922;2023-09-19T20:37:41;7.70;;;2.30;;
14167;SDS011;7163;50.626;12.922;2023-09-19T20:42:41;4.50;;;2.40;;
14167;SDS011;7163;50.626;12.922;2023-09-19T20:47:43;4.27;;;2.00;;
14167;SDS011;7163;50.626;12.922;2023-09-19T20:52:44;8.37;;;2.73;;
14167;SDS011;7163;50.626;12.922;2023-09-19T20:57:44;5.13;;;2.40;;
14167;SDS011;7163;50.626;12.922;2023-09-19T21:02:46;6.10;;;2.60;;
14167;SDS011;7163;50.626;12.922;2023-09-19T21:07:47;6.27;;;2.90;;
14167;SDS011;7163;50.626;12.922;2023-09-19T21:12:48;4.37;;;2.53;;
14167;SDS011;7163;50.626;12.922;2023-09-19T21:17:49;4.20;;;2.40;;
14167;SDS011;7163;50.626;12.922;2023-09-19T21:22:50;5.43;;;2.77;;
14167;SDS011;7163;50.626;12.922;2023-09-19T21:27:51;2.57;;;2.23;;
14167;SDS011;7163;50.626;12.922;2023-09-19T21:32:52;4.97;;;2.73;;
14167;SDS011;7163;50.626;12.922;2023-09-19T21:37:53;6.30;;;2.57;;
14167;SDS011;7163;50.626;12.922;2023-09-19T21:42:54;6.60;;;3.00;;
14167;SDS011;7163;50.626;12.922;2023-09-19T21:47:54;7.17;;;3.20;;
14167;SDS011;7163;50.626;12.922;2023-09-19T21:52:55;5.20;;;3.13;;
14167;SDS011;7163;50.626;12.922;2023-09-19T21:57:55;4.80;;;2.50;;
14167;SDS011;7163;50.626;12.922;2023-09-19T22:02:57;4.17;;;2.40;;
14167;SDS011;7163;50.626;12.922;2023-09-19T22:07:58;3.77;;;2.30;;
14167;SDS011;7163;50.626;12.922;2023-09-19T22:12:59;4.87;;;2.50;;
14167;SDS011;7163;50.626;12.922;2023-09-19T22:18:00;4.23;;;2.40;;
14167;SDS011;7163;50.626;12.922;2023-09-19T22:23:05;3.37;;;2.33;;
14167;SDS011;7163;50.626;12.922;2023-09-19T22:28:06;5.07;;;2.60;;
14167;SDS011;7163;50.626;12.922;2023-09-19T22:33:07;4.57;;;2.40;;
14167;SDS011;7163;50.626;12.922;2023-09-19T22:38:10;6.03;;;2.50;;
14167;SDS011;7163;50.626;12.922;2023-09-19T22:43:11;5.77;;;2.80;;
14167;SDS011;7163;50.626;12.922;2023-09-19T22:48:13;6.57;;;2.30;;
14167;SDS011;7163;50.626;12.922;2023-09-19T22:53:14;5.40;;;2.30;;
14167;SDS011;7163;50.626;12.922;2023-09-19T22:58:19;2.47;;;2.07;;
14167;SDS011;7163;50.626;12.922;2023-09-19T23:03:19;3.73;;;2.30;;
14167;SDS011;7163;50.626;12.922;2023-09-19T23:08:24;6.47;;;2.30;;
14167;SDS011;7163;50.626;12.922;2023-09-19T23:13:24;2.10;;;1.90;;
14167;SDS011;7163;50.626;12.922;2023-09-19T23:18:27;3.13;;;2.13;;
14167;SDS011;7163;50.626;12.922;2023-09-19T23:23:28;4.50;;;2.30;;
14167;SDS011;7163;50.626;12.922;2023-09-19T23:28:31;5.00;;;2.23;;
14167;SDS011;7163;50.626;12.922;2023-09-19T23:33:34;4.77;;;2.20;;
14167;SDS011;7163;50.626;12.922;2023-09-19T23:38:36;8.00;;;2.30;;
14167;SDS011;7163;50.626;12.922;2023-09-19T23:43:39;5.33;;;2.27;;
14167;SDS011;7163;50.626;12.922;2023-09-19T23:48:40;3.00;;;2.20;;
14167;SDS011;7163;50.626;12.922;2023-09-19T23:53:40;2.60;;;2.40;;
14167;SDS011;7163;50.626;12.922;2023-09-19T23:58:41;2.80;;;2.13;;
